createdAt,value
2019-02-23T00:02:16.037Z,11.50
2019-02-23T00:04:47.802Z,12.53
2019-02-23T00:07:19.960Z,13.73
2019-02-23T00:09:52.882Z,11.73
2019-02-23T00:12:25.056Z,13.65
2019-02-23T00:14:56.899Z,11.13
2019-02-23T00:17:29.928Z,14.53
2019-02-23T00:20:01.699Z,13.77
2019-02-23T00:22:34.668Z,12.23
2019-02-23T00:25:06.584Z,13.03
2019-02-23T00:27:38.351Z,12.43
2019-02-23T00:30:10.602Z,10.27
2019-02-23T00:32:42.448Z,12.67
2019-02-23T00:35:14.231Z,13.17
2019-02-23T00:37:46.072Z,14.13
2019-02-23T00:40:17.939Z,12.67
2019-02-23T00:42:49.787Z,14.03
2019-02-23T00:45:21.544Z,14.10
2019-02-23T00:47:53.386Z,13.53
2019-02-23T00:50:25.710Z,13.53
2019-02-23T00:52:57.502Z,16.47
2019-02-23T00:55:29.373Z,10.97
2019-02-23T00:58:01.282Z,11.87
2019-02-23T01:00:33.200Z,13.50
2019-02-23T01:03:05.038Z,13.07
2019-02-23T01:05:36.970Z,13.67
2019-02-23T01:08:09.927Z,12.40
2019-02-23T01:10:41.793Z,12.20
2019-02-23T01:13:13.723Z,12.50
2019-02-23T01:15:45.657Z,11.43
2019-02-23T01:18:17.491Z,16.00
2019-02-23T01:20:49.421Z,13.43
2019-02-23T01:23:21.340Z,12.98
2019-02-23T01:25:53.182Z,11.87
2019-02-23T01:28:25.093Z,12.45
2019-02-23T01:30:56.943Z,13.97
2019-02-23T01:33:28.842Z,12.68
2019-02-23T01:36:00.953Z,12.77
2019-02-23T01:38:32.713Z,12.97
2019-02-23T01:41:04.562Z,14.37
2019-02-23T01:43:36.400Z,10.87
2019-02-23T01:46:09.489Z,17.00
2019-02-23T01:48:41.530Z,14.53
2019-02-23T01:51:14.345Z,14.63
2019-02-23T01:53:46.332Z,13.03
2019-02-23T01:56:18.439Z,14.15
2019-02-23T01:58:50.195Z,14.93
2019-02-23T02:01:22.107Z,13.67
2019-02-23T02:03:55.181Z,12.03
2019-02-23T02:06:27.111Z,12.60
2019-02-23T02:08:58.981Z,14.83
2019-02-23T02:11:30.892Z,14.60
2019-02-23T02:14:03.785Z,16.43
2019-02-23T02:16:35.721Z,15.63
2019-02-23T02:19:07.577Z,14.47
2019-02-23T02:21:39.503Z,15.63
2019-02-23T02:24:11.268Z,15.30
2019-02-23T02:26:43.041Z,14.10
2019-02-23T02:29:14.894Z,14.25
2019-02-23T02:31:46.908Z,15.00
2019-02-23T02:34:19.103Z,15.27
2019-02-23T02:36:51.033Z,16.57
2019-02-23T02:39:23.138Z,17.17
2019-02-23T02:41:55.008Z,20.90
2019-02-23T02:44:26.785Z,16.50
2019-02-23T02:46:58.621Z,15.80
2019-02-23T02:49:30.403Z,17.67
2019-02-23T02:52:02.154Z,16.70
2019-02-23T02:54:33.993Z,17.07
2019-02-23T02:57:05.905Z,19.40
2019-02-23T02:59:37.751Z,16.17
2019-02-23T03:02:10.045Z,19.00
2019-02-23T03:04:41.810Z,19.23
2019-02-23T03:07:13.841Z,18.40
2019-02-23T03:09:45.885Z,18.83
2019-02-23T03:12:18.050Z,17.05
2019-02-23T03:14:50.347Z,15.47
2019-02-23T03:17:22.993Z,17.12
2019-02-23T03:19:55.416Z,19.00
2019-02-23T03:22:27.614Z,18.57
2019-02-23T03:25:00.036Z,20.53
2019-02-23T03:27:31.782Z,18.67
2019-02-23T03:30:05.086Z,16.90
2019-02-23T03:32:36.848Z,18.33
2019-02-23T03:35:09.973Z,17.52
2019-02-23T03:37:42.361Z,16.57
2019-02-23T03:40:14.263Z,21.37
2019-02-23T03:42:46.383Z,17.13
2019-02-23T03:45:18.459Z,18.27
2019-02-23T03:47:50.604Z,20.13
2019-02-23T03:50:22.700Z,18.80
2019-02-23T03:52:54.546Z,18.10
2019-02-23T03:55:26.446Z,17.20
2019-02-23T03:57:58.202Z,20.80
2019-02-23T04:00:30.389Z,19.97
2019-02-23T04:03:02.966Z,18.07
2019-02-23T04:05:34.718Z,19.90
2019-02-23T04:08:06.614Z,15.63
2019-02-23T04:10:38.639Z,18.97
2019-02-23T04:13:10.419Z,19.70
2019-02-23T04:15:42.449Z,18.63
2019-02-23T04:18:14.486Z,16.50
2019-02-23T04:20:46.200Z,17.20
2019-02-23T04:23:18.416Z,17.25
2019-02-23T04:25:50.218Z,17.57
2019-02-23T04:28:21.970Z,17.93
2019-02-23T04:30:54.029Z,16.53
2019-02-23T04:33:26.338Z,20.12
2019-02-23T04:35:58.675Z,18.93
2019-02-23T04:38:30.689Z,17.87
2019-02-23T04:41:02.463Z,17.27
2019-02-23T04:43:34.326Z,17.37
2019-02-23T04:46:06.489Z,18.07
2019-02-23T04:48:38.340Z,20.07
2019-02-23T04:51:14.368Z,15.40
2019-02-23T04:53:43.860Z,16.03
2019-02-23T04:56:15.949Z,17.17
2019-02-23T04:58:47.717Z,16.07
2019-02-23T05:01:20.341Z,19.17
2019-02-23T05:03:52.679Z,19.07
2019-02-23T05:06:25.059Z,16.65
2019-02-23T05:08:57.445Z,13.33
2019-02-23T05:11:29.486Z,20.57
2019-02-23T05:14:01.869Z,16.83
2019-02-23T05:16:33.884Z,14.23
2019-02-23T05:19:06.262Z,17.35
2019-02-23T05:21:38.974Z,14.07
2019-02-23T05:24:10.762Z,14.17
2019-02-23T05:26:42.929Z,18.43
2019-02-23T05:29:15.917Z,14.03
2019-02-23T05:31:47.778Z,16.27
2019-02-23T05:34:20.135Z,15.45
2019-02-23T05:36:52.457Z,18.37
2019-02-23T05:39:24.997Z,14.95
2019-02-23T05:41:56.776Z,18.27
2019-02-23T05:44:28.622Z,18.70
2019-02-23T05:47:00.925Z,18.07
2019-02-23T05:49:33.369Z,15.17
2019-02-23T05:52:05.952Z,18.37
2019-02-23T05:54:37.949Z,18.57
2019-02-23T05:57:09.802Z,15.67
2019-02-23T05:59:41.715Z,15.80
2019-02-23T06:02:13.585Z,17.07
2019-02-23T06:04:45.600Z,17.65
2019-02-23T06:07:17.417Z,15.68
2019-02-23T06:09:49.179Z,17.87
2019-02-23T06:12:21.485Z,18.40
2019-02-23T06:14:53.277Z,15.93
2019-02-23T06:17:25.040Z,15.20
2019-02-23T06:19:56.789Z,16.93
2019-02-23T06:22:28.909Z,17.40
2019-02-23T06:25:00.972Z,16.47
2019-02-23T06:27:33.003Z,16.07
2019-02-23T06:30:05.663Z,17.13
2019-02-23T06:32:37.973Z,16.70
2019-02-23T06:35:10.954Z,17.83
2019-02-23T06:37:43.611Z,16.20
2019-02-23T06:40:15.787Z,18.77
2019-02-23T06:42:48.174Z,16.37
2019-02-23T06:45:19.995Z,15.93
2019-02-23T06:47:51.754Z,18.13
2019-02-23T06:50:23.585Z,17.10
2019-02-23T06:52:55.610Z,16.03
2019-02-23T06:55:27.371Z,15.43
2019-02-23T06:57:59.488Z,16.43
2019-02-23T07:00:31.429Z,14.53
2019-02-23T07:03:03.720Z,15.50
2019-02-23T07:05:35.751Z,14.20
2019-02-23T07:08:07.504Z,18.43
2019-02-23T07:10:39.610Z,14.30
2019-02-23T07:13:11.785Z,16.93
2019-02-23T07:15:43.903Z,18.47
2019-02-23T07:18:16.592Z,15.90
2019-02-23T07:20:48.426Z,16.50
2019-02-23T07:23:20.331Z,17.70
2019-02-23T07:25:53.055Z,13.67
2019-02-23T07:28:24.807Z,17.40
2019-02-23T07:30:56.904Z,15.20
2019-02-23T07:33:32.750Z,17.20
2019-02-23T07:36:03.047Z,15.27
2019-02-23T07:38:35.610Z,16.13
2019-02-23T07:41:07.999Z,19.37
2019-02-23T07:43:40.627Z,16.43
2019-02-23T07:46:13.428Z,15.53
2019-02-23T07:48:45.452Z,14.43
2019-02-23T07:51:17.802Z,13.95
2019-02-23T07:53:49.816Z,17.33
2019-02-23T07:56:21.994Z,13.63
2019-02-23T07:58:53.816Z,16.13
2019-02-23T08:01:26.200Z,20.12
2019-02-23T08:03:57.953Z,16.00
2019-02-23T08:06:30.049Z,16.73
2019-02-23T08:09:02.364Z,14.27
2019-02-23T08:11:36.327Z,15.10
2019-02-23T08:14:08.492Z,15.50
2019-02-23T08:16:40.688Z,15.23
2019-02-23T08:19:12.964Z,16.27
2019-02-23T08:21:45.308Z,17.23
2019-02-23T08:24:17.086Z,16.75
2019-02-23T08:26:49.486Z,17.70
2019-02-23T08:29:21.252Z,16.30
2019-02-23T08:31:53.420Z,13.57
2019-02-23T08:34:25.197Z,12.60
2019-02-23T08:36:56.966Z,10.90
2019-02-23T08:39:29.141Z,13.97
2019-02-23T08:42:00.997Z,14.57
2019-02-23T08:44:33.544Z,12.90
2019-02-23T08:47:05.754Z,13.27
2019-02-23T08:49:37.642Z,14.20
2019-02-23T08:52:14.025Z,12.20
2019-02-23T08:54:46.010Z,13.20
2019-02-23T08:57:18.329Z,12.45
2019-02-23T08:59:51.325Z,14.87
2019-02-23T09:02:23.082Z,15.90
2019-02-23T09:04:55.351Z,14.10
2019-02-23T09:07:27.197Z,15.72
2019-02-23T09:09:58.939Z,14.07
2019-02-23T09:12:30.715Z,15.27
2019-02-23T09:15:03.303Z,13.23
2019-02-23T09:17:35.608Z,15.57
2019-02-23T09:20:07.770Z,15.37
2019-02-23T09:22:39.899Z,12.80
2019-02-23T09:25:12.467Z,12.20
2019-02-23T09:27:44.304Z,16.27
2019-02-23T09:30:16.305Z,14.35
2019-02-23T09:32:48.302Z,12.23
2019-02-23T09:35:20.484Z,11.43
2019-02-23T09:37:52.512Z,11.97
2019-02-23T09:40:24.329Z,13.90
2019-02-23T09:42:56.087Z,16.87
2019-02-23T09:45:27.900Z,13.47
2019-02-23T09:48:00.241Z,12.10
2019-02-23T09:50:32.244Z,11.57
2019-02-23T09:53:11.300Z,12.10
2019-02-23T09:55:37.867Z,12.50
2019-02-23T09:58:10.524Z,13.63
2019-02-23T10:00:42.340Z,13.87
2019-02-23T10:03:14.415Z,13.33
2019-02-23T10:05:46.412Z,9.80
2019-02-23T10:08:18.712Z,12.05
2019-02-23T10:10:51.368Z,10.13
2019-02-23T10:13:23.384Z,10.98
2019-02-23T10:15:55.466Z,10.17
2019-02-23T10:18:27.644Z,10.48
2019-02-23T10:20:59.715Z,7.63
2019-02-23T10:23:31.730Z,8.17
2019-02-23T10:26:04.800Z,10.37
2019-02-23T10:28:37.104Z,6.30
2019-02-23T10:31:10.369Z,10.97
2019-02-23T10:33:47.539Z,8.10
2019-02-23T10:36:16.919Z,10.15
2019-02-23T10:38:49.293Z,9.83
2019-02-23T10:41:21.566Z,9.48
2019-02-23T10:43:53.648Z,9.73
2019-02-23T10:46:25.725Z,7.25
2019-02-23T10:48:57.775Z,8.77
2019-02-23T10:51:29.509Z,9.20
2019-02-23T10:54:01.686Z,10.67
2019-02-23T10:56:33.488Z,7.13
2019-02-23T10:59:05.398Z,6.97
2019-02-23T11:01:38.106Z,9.03
2019-02-23T11:04:10.427Z,8.20
2019-02-23T11:06:42.312Z,5.63
2019-02-23T11:09:22.340Z,6.53
2019-02-23T11:11:54.162Z,9.07
2019-02-23T11:14:26.434Z,6.97
2019-02-23T11:16:58.819Z,5.63
2019-02-23T11:19:30.795Z,6.57
2019-02-23T11:22:03.048Z,7.33
2019-02-23T11:24:35.059Z,4.43
2019-02-23T11:27:07.036Z,4.93
2019-02-23T11:29:39.380Z,4.97
2019-02-23T11:32:11.453Z,5.40
2019-02-23T11:34:43.959Z,6.37
2019-02-23T11:37:16.550Z,6.10
2019-02-23T11:39:49.344Z,5.87
2019-02-23T11:42:21.501Z,6.53
2019-02-23T11:44:53.566Z,5.77
2019-02-23T11:47:25.917Z,4.92
2019-02-23T11:49:57.902Z,5.33
2019-02-23T11:52:29.705Z,7.03
2019-02-23T11:55:01.716Z,6.97
2019-02-23T11:57:34.115Z,3.53
2019-02-23T12:00:06.886Z,5.58
2019-02-23T12:02:39.450Z,4.33
2019-02-23T12:05:11.815Z,7.73
2019-02-23T12:07:45.188Z,4.97
2019-02-23T12:10:17.284Z,7.33
2019-02-23T12:12:49.287Z,4.77
2019-02-23T12:15:21.077Z,3.37
2019-02-23T12:17:53.393Z,5.37
2019-02-23T12:20:25.743Z,6.50
2019-02-23T12:22:57.986Z,5.43
2019-02-23T12:25:29.998Z,4.45
2019-02-23T12:28:01.749Z,6.67
2019-02-23T12:30:33.815Z,7.17
2019-02-23T12:33:05.635Z,5.50
2019-02-23T12:35:37.443Z,4.10
2019-02-23T12:38:10.961Z,3.50
2019-02-23T12:40:43.025Z,6.40
2019-02-23T12:43:16.321Z,7.60
2019-02-23T12:45:48.447Z,5.63
2019-02-23T12:48:21.181Z,4.20
2019-02-23T12:50:52.972Z,5.33
2019-02-23T12:53:24.714Z,6.17
2019-02-23T12:55:56.513Z,4.30
2019-02-23T12:58:28.604Z,4.13
2019-02-23T13:01:00.390Z,4.97
2019-02-23T13:03:32.818Z,4.47
2019-02-23T13:06:04.612Z,4.67
2019-02-23T13:09:16.821Z,5.03
2019-02-23T13:11:57.658Z,6.00
2019-02-23T13:15:16.787Z,3.63
2019-02-23T13:18:55.455Z,5.63
2019-02-23T13:22:44.623Z,4.20
2019-02-23T13:26:03.286Z,2.60
2019-02-23T13:29:19.224Z,2.50
2019-02-23T13:32:30.151Z,3.83
2019-02-23T13:35:50.640Z,3.33
2019-02-23T13:39:26.480Z,2.70
2019-02-23T13:42:52.107Z,4.47
2019-02-23T13:46:08.334Z,2.50
2019-02-23T13:49:27.117Z,2.40
2019-02-23T13:52:55.242Z,6.33
2019-02-23T13:56:25.186Z,3.65
2019-02-23T13:59:29.360Z,2.47
2019-02-23T14:03:13.364Z,2.17
2019-02-23T14:06:21.933Z,3.53
2019-02-23T14:09:51.033Z,2.90
2019-02-23T14:13:22.713Z,4.15
2019-02-23T14:16:46.892Z,2.33
2019-02-23T14:20:13.095Z,2.50
2019-02-23T14:23:39.702Z,2.77
2019-02-23T14:27:14.627Z,2.57
2019-02-23T14:30:48.488Z,1.87
2019-02-23T14:34:44.677Z,2.53
2019-02-23T14:38:20.176Z,3.80
2019-02-23T14:41:23.570Z,2.30
2019-02-23T14:44:42.952Z,2.60
2019-02-23T14:48:06.113Z,2.17
2019-02-23T14:51:49.256Z,3.02
2019-02-23T14:55:00.869Z,3.22
2019-02-23T14:58:26.238Z,3.37
2019-02-23T15:01:29.615Z,5.67
2019-02-23T15:04:48.839Z,5.30
2019-02-23T15:08:43.577Z,4.95
2019-02-23T15:12:13.095Z,3.62
2019-02-23T15:15:39.809Z,3.53
2019-02-23T15:19:17.423Z,3.73
2019-02-23T15:22:49.776Z,3.47
2019-02-23T15:25:49.734Z,3.52
2019-02-23T15:29:02.816Z,4.35
2019-02-23T15:32:30.925Z,4.10
2019-02-23T15:36:17.234Z,3.77
2019-02-23T15:39:55.712Z,6.03
2019-02-23T15:43:13.985Z,3.67
2019-02-23T15:47:13.157Z,3.20
2019-02-23T15:49:45.474Z,3.43
2019-02-23T15:52:17.637Z,4.78
2019-02-23T15:54:49.874Z,4.50
2019-02-23T15:57:22.592Z,4.08
2019-02-23T15:59:54.761Z,4.47
2019-02-23T16:02:26.862Z,3.52
2019-02-23T16:04:59.391Z,3.37
2019-02-23T16:07:31.283Z,4.87
2019-02-23T16:10:03.391Z,2.77
2019-02-23T16:12:36.106Z,3.83
2019-02-23T16:15:09.768Z,3.97
2019-02-23T16:17:45.461Z,5.27
2019-02-23T16:20:17.210Z,4.40
2019-02-23T16:22:49.543Z,3.50
2019-02-23T16:25:21.610Z,3.23
2019-02-23T16:27:53.650Z,3.63
2019-02-23T16:30:26.668Z,4.10
2019-02-23T16:32:58.688Z,3.50
2019-02-23T16:35:30.771Z,4.40
2019-02-23T16:38:03.070Z,3.00
2019-02-23T16:40:35.416Z,3.90
2019-02-23T16:43:07.229Z,3.37
2019-02-23T16:45:40.227Z,3.80
2019-02-23T16:48:12.642Z,2.60
2019-02-23T16:50:44.743Z,4.93
2019-02-23T16:53:16.833Z,2.40
2019-02-23T16:55:51.068Z,4.07
2019-02-23T16:58:23.427Z,3.37
2019-02-23T17:00:55.443Z,3.50
2019-02-23T17:03:27.494Z,4.33
2019-02-23T17:05:59.811Z,5.33
2019-02-23T17:08:31.893Z,3.73
2019-02-23T17:11:03.887Z,2.80
2019-02-23T17:13:36.565Z,4.53
2019-02-23T17:16:09.841Z,3.60
2019-02-23T17:18:41.869Z,3.57
2019-02-23T17:21:14.398Z,5.30
2019-02-23T17:23:46.694Z,3.85
2019-02-23T17:26:18.794Z,5.23
2019-02-23T17:28:51.062Z,4.63
2019-02-23T17:31:23.414Z,2.75
2019-02-23T17:33:55.719Z,4.40
2019-02-23T17:36:27.794Z,2.52
2019-02-23T17:38:59.896Z,2.70
2019-02-23T17:41:31.776Z,2.47
2019-02-23T17:44:03.624Z,3.17
2019-02-23T17:46:36.225Z,4.13
2019-02-23T17:49:08.474Z,2.97
2019-02-23T17:51:40.620Z,3.67
2019-02-23T17:54:12.677Z,3.80
2019-02-23T17:56:44.725Z,4.87
2019-02-23T17:59:17.593Z,2.95
2019-02-23T18:01:49.412Z,3.57
2019-02-23T18:04:21.298Z,8.03
2019-02-23T18:06:53.548Z,5.33
2019-02-23T18:09:25.298Z,4.77
2019-02-23T18:11:57.289Z,3.97
2019-02-23T18:14:29.128Z,4.20
2019-02-23T18:17:00.869Z,3.77
2019-02-23T18:19:32.893Z,4.53
2019-02-23T18:22:04.711Z,4.03
2019-02-23T18:24:37.996Z,4.27
2019-02-23T18:27:10.142Z,4.10
2019-02-23T18:29:42.022Z,4.90
2019-02-23T18:32:13.843Z,3.50
2019-02-23T18:34:47.154Z,5.83
2019-02-23T18:37:18.978Z,4.03
2019-02-23T18:39:52.300Z,3.00
2019-02-23T18:42:24.116Z,2.85
2019-02-23T18:44:55.936Z,3.23
2019-02-23T18:47:27.754Z,3.20
2019-02-23T18:49:59.517Z,2.30
2019-02-23T18:52:31.317Z,2.23
2019-02-23T18:55:03.735Z,4.00
2019-02-23T18:57:35.870Z,3.57
2019-02-23T19:00:09.610Z,2.90
2019-02-23T19:02:41.513Z,1.93
2019-02-23T19:05:13.590Z,4.10
2019-02-23T19:07:45.326Z,3.73
2019-02-23T19:10:17.216Z,3.83
2019-02-23T19:12:48.964Z,3.23
2019-02-23T19:15:21.936Z,3.05
2019-02-23T19:17:54.131Z,2.63
2019-02-23T19:20:26.445Z,4.90
2019-02-23T19:22:58.438Z,3.40
2019-02-23T19:25:30.258Z,3.60
2019-02-23T19:28:03.147Z,4.27
2019-02-23T19:30:35.052Z,3.73
2019-02-23T19:33:06.833Z,6.43
2019-02-23T19:35:38.649Z,4.80
2019-02-23T19:38:10.632Z,4.00
2019-02-23T19:40:42.475Z,3.90
2019-02-23T19:43:14.280Z,3.17
2019-02-23T19:45:46.024Z,3.17
2019-02-23T19:48:17.835Z,2.17
2019-02-23T19:50:55.065Z,3.20
2019-02-23T19:53:26.861Z,3.60
2019-02-23T19:55:58.971Z,3.90
2019-02-23T19:58:30.897Z,4.33
2019-02-23T20:01:03.028Z,2.93
2019-02-23T20:03:35.084Z,2.90
2019-02-23T20:06:07.002Z,2.97
2019-02-23T20:08:39.247Z,3.97
2019-02-23T20:11:11.406Z,3.40
2019-02-23T20:13:43.326Z,4.77
2019-02-23T20:16:15.852Z,5.57
2019-02-23T20:18:47.797Z,2.80
2019-02-23T20:21:19.794Z,3.95
2019-02-23T20:23:51.628Z,2.80
2019-02-23T20:26:23.571Z,3.08
2019-02-23T20:28:55.592Z,5.57
2019-02-23T20:31:27.621Z,3.63
2019-02-23T20:33:59.566Z,4.47
2019-02-23T20:36:31.391Z,4.03
2019-02-23T20:39:03.873Z,4.50
2019-02-23T20:41:37.826Z,3.83
2019-02-23T20:44:09.801Z,6.60
2019-02-23T20:46:41.691Z,4.63
2019-02-23T20:49:13.781Z,6.20
2019-02-23T20:51:45.685Z,4.93
2019-02-23T20:54:17.701Z,3.75
2019-02-23T20:56:49.565Z,3.37
2019-02-23T20:59:21.527Z,3.55
2019-02-23T21:01:53.836Z,4.67
2019-02-23T21:04:26.195Z,5.20
2019-02-23T21:06:58.563Z,3.43
2019-02-23T21:09:33.456Z,4.13
2019-02-23T21:12:05.821Z,4.70
2019-02-23T21:14:38.111Z,4.33
2019-02-23T21:17:10.358Z,4.00
2019-02-23T21:19:42.142Z,4.70
2019-02-23T21:22:14.347Z,5.40
2019-02-23T21:24:46.800Z,5.23
2019-02-23T21:27:20.315Z,6.37
2019-02-23T21:29:52.254Z,4.37
2019-02-23T21:32:24.575Z,4.70
2019-02-23T21:34:57.308Z,4.30
2019-02-23T21:37:29.759Z,5.30
2019-02-23T21:40:01.744Z,4.03
2019-02-23T21:42:35.383Z,4.63
2019-02-23T21:45:07.399Z,4.87
2019-02-23T21:47:40.112Z,6.23
2019-02-23T21:50:12.486Z,6.67
2019-02-23T21:52:45.012Z,5.17
2019-02-23T21:55:16.841Z,4.13
2019-02-23T21:57:49.067Z,4.80
2019-02-23T22:00:21.106Z,7.37
2019-02-23T22:02:53.501Z,4.23
2019-02-23T22:05:26.058Z,7.05
2019-02-23T22:07:58.726Z,5.23
2019-02-23T22:10:31.067Z,4.70
2019-02-23T22:13:03.361Z,4.47
2019-02-23T22:15:35.829Z,5.13
2019-02-23T22:18:07.710Z,6.17
2019-02-23T22:20:39.676Z,5.53
2019-02-23T22:23:12.364Z,4.40
2019-02-23T22:25:44.221Z,6.10
2019-02-23T22:28:17.105Z,3.92
2019-02-23T22:30:49.502Z,4.27
2019-02-23T22:33:21.656Z,5.00
2019-02-23T22:35:53.481Z,7.63
2019-02-23T22:38:25.246Z,6.15
2019-02-23T22:40:58.150Z,3.83
2019-02-23T22:43:30.265Z,4.37
2019-02-23T22:46:02.120Z,4.63
2019-02-23T22:48:34.343Z,5.90
2019-02-23T22:51:06.733Z,7.27
2019-02-23T22:53:38.461Z,5.27
2019-02-23T22:56:10.531Z,4.50
2019-02-23T22:58:42.534Z,5.83
2019-02-23T23:01:14.821Z,5.45
2019-02-23T23:03:49.032Z,5.20
2019-02-23T23:06:21.196Z,5.83
2019-02-23T23:08:53.214Z,4.43
2019-02-23T23:11:25.440Z,5.12
2019-02-23T23:13:57.267Z,6.07
2019-02-23T23:16:30.041Z,5.00
2019-02-23T23:19:02.435Z,4.63
2019-02-23T23:21:34.949Z,3.93
2019-02-23T23:24:06.775Z,3.93
2019-02-23T23:26:39.183Z,6.07
2019-02-23T23:29:11.027Z,3.35
2019-02-23T23:31:43.791Z,7.27
2019-02-23T23:34:16.578Z,4.00
2019-02-23T23:36:48.656Z,4.87
2019-02-23T23:39:20.507Z,4.42
2019-02-23T23:41:53.065Z,4.93
2019-02-23T23:44:25.217Z,5.50
2019-02-23T23:46:57.361Z,5.37
2019-02-23T23:49:29.375Z,5.10
2019-02-23T23:52:01.569Z,4.10
2019-02-23T23:54:33.898Z,4.87
2019-02-23T23:57:05.834Z,4.30
2019-02-23T23:59:37.929Z,4.28
